createdAt,value
2023-01-29T00:00:10.315Z,-0.60
2023-01-29T00:02:37.244Z,-0.50
2023-01-29T00:07:52.747Z,-0.60
2023-01-29T00:10:27.652Z,-0.60
2023-01-29T00:12:59.119Z,-0.60
2023-01-29T00:15:38.725Z,-0.60
2023-01-29T00:18:26.503Z,-0.50
2023-01-29T00:20:53.394Z,-0.30
2023-01-29T00:23:20.077Z,-0.30
2023-01-29T00:25:46.988Z,-0.30
2023-01-29T00:28:14.447Z,-0.30
2023-01-29T00:30:41.138Z,-0.30
2023-01-29T00:33:07.854Z,-0.20
2023-01-29T00:35:34.500Z,-0.30
2023-01-29T00:38:01.168Z,-0.20
2023-01-29T00:40:50.335Z,-0.20
2023-01-29T00:43:35.755Z,-0.20
2023-01-29T00:46:02.528Z,-0.10
2023-01-29T00:48:29.257Z,-0.10
2023-01-29T00:50:56.175Z,-0.10
2023-01-29T00:53:22.846Z,-0.20
2023-01-29T00:55:49.489Z,-0.20
2023-01-29T00:58:22.486Z,-0.20
2023-01-29T01:00:49.407Z,-0.30
2023-01-29T01:03:16.251Z,-0.30
2023-01-29T01:05:43.045Z,-0.20
2023-01-29T01:08:28.945Z,-0.10
2023-01-29T01:11:03.358Z,-0.10
2023-01-29T01:13:31.649Z,0.00
2023-01-29T01:15:58.397Z,0.00
2023-01-29T01:18:25.071Z,0.00
2023-01-29T01:20:57.839Z,0.00
2023-01-29T01:23:24.607Z,0.00
2023-01-29T01:25:51.238Z,0.00
2023-01-29T01:28:17.871Z,0.00
2023-01-29T01:30:44.718Z,-0.10
2023-01-29T01:33:11.353Z,0.00
2023-01-29T01:35:38.924Z,0.00
2023-01-29T01:38:08.683Z,0.00
2023-01-29T01:40:35.402Z,0.00
2023-01-29T01:43:02.182Z,0.10
2023-01-29T01:45:30.375Z,0.10
2023-01-29T01:47:59.724Z,0.10
2023-01-29T01:50:45.212Z,0.10
2023-01-29T01:53:16.904Z,0.10
2023-01-29T01:55:56.204Z,0.10
2023-01-29T01:58:26.863Z,0.20
2023-01-29T02:00:54.385Z,0.20
2023-01-29T02:03:40.333Z,0.20
2023-01-29T02:06:25.898Z,0.20
2023-01-29T02:09:29.903Z,0.20
2023-01-29T02:11:56.576Z,0.20
2023-01-29T02:14:23.401Z,0.20
2023-01-29T02:16:50.200Z,0.20
2023-01-29T02:19:26.449Z,0.20
2023-01-29T02:21:53.047Z,0.10
2023-01-29T02:24:34.980Z,0.10
2023-01-29T02:27:09.764Z,0.10
2023-01-29T02:29:45.727Z,0.20
2023-01-29T02:32:12.636Z,0.20
2023-01-29T02:35:25.116Z,0.20
2023-01-29T02:37:58.109Z,0.20
2023-01-29T02:40:29.042Z,0.20
2023-01-29T02:43:06.404Z,0.20
2023-01-29T02:45:39.836Z,0.20
2023-01-29T02:48:06.686Z,0.10
2023-01-29T02:50:33.918Z,0.20
2023-01-29T02:53:18.466Z,0.20
2023-01-29T02:55:48.785Z,0.10
2023-01-29T02:58:22.553Z,0.10
2023-01-29T03:00:49.353Z,0.10
2023-01-29T03:03:20.875Z,0.10
2023-01-29T03:06:06.235Z,0.10
2023-01-29T03:08:43.191Z,0.10
2023-01-29T03:11:13.713Z,0.10
2023-01-29T03:13:42.047Z,0.10
2023-01-29T03:16:31.162Z,0.10
2023-01-29T03:19:03.960Z,0.10
2023-01-29T03:21:51.253Z,0.20
2023-01-29T03:24:59.564Z,0.10
2023-01-29T03:27:47.518Z,0.20
2023-01-29T03:30:34.182Z,0.20
2023-01-29T03:33:03.459Z,0.20
2023-01-29T03:35:36.460Z,0.20
2023-01-29T03:38:04.280Z,0.10
2023-01-29T03:40:35.331Z,0.10
2023-01-29T03:43:10.226Z,0.10
2023-01-29T03:45:55.968Z,0.10
2023-01-29T03:48:48.945Z,0.10
2023-01-29T03:51:21.304Z,0.10
2023-01-29T03:53:51.044Z,0.20
2023-01-29T03:56:36.924Z,0.10
2023-01-29T03:59:15.834Z,0.10
2023-01-29T04:01:48.606Z,0.10
2023-01-29T04:04:19.916Z,0.10
2023-01-29T04:06:48.771Z,0.20
2023-01-29T04:09:35.638Z,0.20
2023-01-29T04:12:04.500Z,0.20
2023-01-29T04:14:31.354Z,0.20
2023-01-29T04:17:00.154Z,0.20
2023-01-29T04:19:27.467Z,0.20
2023-01-29T04:22:00.241Z,0.20
2023-01-29T04:24:27.021Z,0.20
2023-01-29T04:27:12.437Z,0.20
2023-01-29T04:30:02.381Z,0.20
2023-01-29T04:32:32.466Z,0.20
2023-01-29T04:35:23.957Z,0.20
2023-01-29T04:37:50.542Z,0.10
2023-01-29T04:40:26.577Z,0.10
2023-01-29T04:42:56.284Z,0.10
2023-01-29T04:45:22.912Z,0.10
2023-01-29T04:47:49.494Z,0.10
2023-01-29T04:50:28.243Z,0.10
2023-01-29T04:59:00.563Z,0.20
2023-01-29T05:01:30.839Z,0.20
2023-01-29T05:03:58.412Z,0.20
2023-01-29T05:06:28.070Z,0.20
2023-01-29T05:09:00.248Z,0.20
2023-01-29T05:11:27.029Z,0.10
2023-01-29T05:13:56.711Z,0.00
2023-01-29T05:16:28.571Z,0.00
2023-01-29T05:18:55.541Z,-0.10
2023-01-29T05:21:23.537Z,-0.20
2023-01-29T05:24:09.230Z,-0.20
2023-01-29T05:26:54.677Z,-0.30
2023-01-29T05:29:21.593Z,-0.40
2023-01-29T05:31:48.261Z,-0.50
2023-01-29T05:34:16.962Z,-0.60
2023-01-29T05:36:43.616Z,-0.80
2023-01-29T05:39:10.226Z,-0.90
2023-01-29T05:41:36.952Z,-0.90
2023-01-29T05:44:03.623Z,-1.00
2023-01-29T05:46:30.311Z,-1.10
2023-01-29T05:48:57.001Z,-1.20
2023-01-29T05:51:23.605Z,-1.30
2023-01-29T05:53:50.221Z,-1.30
2023-01-29T05:56:16.915Z,-1.40
2023-01-29T05:58:43.541Z,-1.40
2023-01-29T06:01:11.789Z,-1.40
2023-01-29T06:03:38.561Z,-1.40
2023-01-29T06:06:05.230Z,-1.40
2023-01-29T06:08:31.908Z,-1.40
2023-01-29T06:10:58.587Z,-1.40
2023-01-29T06:13:25.302Z,-1.40
2023-01-29T06:15:52.095Z,-1.50
2023-01-29T06:18:19.026Z,-1.60
2023-01-29T06:20:45.731Z,-1.50
2023-01-29T06:23:12.354Z,-1.40
2023-01-29T06:25:38.991Z,-1.30
2023-01-29T06:28:05.587Z,-1.20
2023-01-29T06:30:32.432Z,-1.20
2023-01-29T06:33:01.587Z,-1.20
2023-01-29T06:35:28.292Z,-1.20
2023-01-29T06:37:56.039Z,-1.10
2023-01-29T06:40:22.761Z,-1.00
2023-01-29T06:42:49.345Z,-1.00
2023-01-29T06:45:15.973Z,-1.00
2023-01-29T06:47:42.587Z,-0.90
2023-01-29T06:50:09.566Z,-0.90
2023-01-29T06:52:36.169Z,-0.80
2023-01-29T06:55:02.830Z,-0.90
2023-01-29T06:57:30.114Z,-0.80
2023-01-29T06:59:56.804Z,-0.90
2023-01-29T07:02:23.572Z,-0.80
2023-01-29T07:04:50.237Z,-0.80
2023-01-29T07:07:16.921Z,-0.70
2023-01-29T07:09:45.876Z,-0.70
2023-01-29T07:12:12.505Z,-0.70
2023-01-29T07:14:39.095Z,-0.70
2023-01-29T07:17:05.697Z,-0.60
2023-01-29T07:19:33.245Z,-0.60
2023-01-29T07:22:02.443Z,-0.50
2023-01-29T07:24:29.275Z,-0.50
2023-01-29T07:26:56.207Z,-0.50
2023-01-29T07:29:22.898Z,-0.40
2023-01-29T07:31:49.747Z,-0.40
2023-01-29T07:34:18.525Z,-0.40
2023-01-29T07:36:45.208Z,-0.40
2023-01-29T07:39:19.325Z,-0.40
2023-01-29T07:41:45.958Z,-0.40
2023-01-29T07:44:12.530Z,-0.30
2023-01-29T07:46:39.213Z,-0.30
2023-01-29T07:49:05.891Z,-0.20
2023-01-29T07:51:32.499Z,-0.20
2023-01-29T07:53:59.138Z,-0.10
2023-01-29T07:56:52.858Z,-0.10
2023-01-29T07:59:19.515Z,0.00
2023-01-29T08:01:46.151Z,0.10
2023-01-29T08:04:12.864Z,0.10
2023-01-29T08:06:39.581Z,0.20
2023-01-29T08:09:06.287Z,0.20
2023-01-29T08:11:32.859Z,0.30
2023-01-29T08:13:59.488Z,0.40
2023-01-29T08:16:26.177Z,0.50
2023-01-29T08:18:52.789Z,0.50
2023-01-29T08:21:19.489Z,0.40
2023-01-29T08:23:46.131Z,0.40
2023-01-29T08:26:12.811Z,0.50
2023-01-29T08:28:45.651Z,0.50
2023-01-29T08:31:16.136Z,0.50
2023-01-29T08:33:42.829Z,0.60
2023-01-29T08:36:09.789Z,0.60
2023-01-29T08:38:37.937Z,0.70
2023-01-29T08:41:05.059Z,0.60
2023-01-29T08:43:36.933Z,0.60
2023-01-29T08:46:05.003Z,0.70
2023-01-29T08:48:31.647Z,0.70
2023-01-29T08:50:59.306Z,0.80
2023-01-29T08:53:26.159Z,0.80
2023-01-29T08:55:53.331Z,0.90
2023-01-29T08:58:20.265Z,0.90
2023-01-29T09:00:46.937Z,1.00
2023-01-29T09:03:13.878Z,1.10
2023-01-29T09:05:40.874Z,1.10
2023-01-29T09:08:08.376Z,1.20
2023-01-29T09:10:41.292Z,1.30
2023-01-29T09:13:07.954Z,1.20
2023-01-29T09:15:34.587Z,1.20
2023-01-29T09:18:04.579Z,1.20
2023-01-29T09:20:31.458Z,1.20
2023-01-29T09:22:59.192Z,1.30
2023-01-29T09:25:25.956Z,1.30
2023-01-29T09:27:54.164Z,1.50
2023-01-29T09:30:23.851Z,1.60
2023-01-29T09:32:53.697Z,1.60
2023-01-29T09:35:24.225Z,1.50
2023-01-29T09:37:51.140Z,1.60
2023-01-29T09:40:33.439Z,1.60
2023-01-29T09:43:06.410Z,1.60
2023-01-29T09:45:33.354Z,1.50
2023-01-29T09:48:02.045Z,1.60
2023-01-29T09:50:28.692Z,1.50
2023-01-29T09:53:01.338Z,1.50
2023-01-29T09:55:29.931Z,1.60
2023-01-29T09:58:00.609Z,1.60
2023-01-29T10:00:46.035Z,1.70
2023-01-29T10:03:28.131Z,1.80
2023-01-29T10:05:54.740Z,1.90
2023-01-29T10:08:54.029Z,2.10
2023-01-29T10:11:20.597Z,2.10
2023-01-29T10:13:47.181Z,2.30
2023-01-29T10:16:32.685Z,2.30
2023-01-29T10:19:05.570Z,2.30
2023-01-29T10:21:40.137Z,2.30
2023-01-29T10:24:25.596Z,2.20
2023-01-29T10:26:52.561Z,2.10
2023-01-29T10:29:19.911Z,2.00
2023-01-29T10:31:49.978Z,1.90
2023-01-29T10:34:35.573Z,2.00
2023-01-29T10:37:11.801Z,2.10
2023-01-29T10:39:38.450Z,2.20
2023-01-29T10:42:13.272Z,2.30
2023-01-29T10:44:40.002Z,2.40
2023-01-29T10:47:18.792Z,2.60
2023-01-29T10:49:57.807Z,2.80
2023-01-29T10:52:43.320Z,2.90
2023-01-29T10:55:12.959Z,3.00
2023-01-29T10:57:48.777Z,3.00
2023-01-29T11:00:21.594Z,3.10
2023-01-29T11:02:50.252Z,3.10
2023-01-29T11:05:20.187Z,3.20
2023-01-29T11:07:48.182Z,3.30
2023-01-29T11:10:18.041Z,3.30
2023-01-29T11:12:45.698Z,3.30
2023-01-29T11:15:18.274Z,3.30
2023-01-29T11:18:03.842Z,3.40
2023-01-29T11:20:32.055Z,3.30
2023-01-29T11:22:59.405Z,3.30
2023-01-29T11:25:26.160Z,3.40
2023-01-29T11:27:54.958Z,3.50
2023-01-29T11:30:24.240Z,3.50
2023-01-29T11:32:56.003Z,3.60
2023-01-29T11:35:24.079Z,3.60
2023-01-29T11:37:51.021Z,3.70
2023-01-29T11:40:23.756Z,3.60
2023-01-29T11:42:52.343Z,3.60
2023-01-29T11:45:27.491Z,3.50
2023-01-29T11:47:57.631Z,3.40
2023-01-29T11:50:25.892Z,3.30
2023-01-29T11:52:52.959Z,3.20
2023-01-29T11:55:22.263Z,3.20
2023-01-29T11:58:15.467Z,3.20
2023-01-29T12:00:45.451Z,3.30
2023-01-29T12:03:30.874Z,3.30
2023-01-29T12:05:59.953Z,3.30
2023-01-29T12:08:28.141Z,3.40
2023-01-29T12:11:06.751Z,3.40
2023-01-29T12:13:33.488Z,3.30
2023-01-29T12:16:13.345Z,3.20
2023-01-29T12:18:42.546Z,3.10
2023-01-29T12:21:15.797Z,3.00
2023-01-29T12:23:48.518Z,3.00
2023-01-29T12:26:16.361Z,3.20
2023-01-29T12:28:47.633Z,3.20
2023-01-29T12:31:48.804Z,3.20
2023-01-29T12:34:18.233Z,3.30
2023-01-29T12:36:55.225Z,3.40
2023-01-29T12:39:22.136Z,3.40
2023-01-29T12:41:57.943Z,3.20
2023-01-29T12:44:34.563Z,3.30
2023-01-29T12:47:02.842Z,3.50
2023-01-29T12:49:32.277Z,3.50
2023-01-29T12:52:02.292Z,3.40
2023-01-29T12:54:44.828Z,3.40
2023-01-29T12:57:34.805Z,3.50
2023-01-29T13:00:06.071Z,3.50
2023-01-29T13:02:36.212Z,3.70
2023-01-29T13:05:05.727Z,3.80
2023-01-29T13:07:34.494Z,3.90
2023-01-29T13:10:09.765Z,4.00
2023-01-29T13:12:37.119Z,4.00
2023-01-29T13:15:06.815Z,4.00
2023-01-29T13:17:34.058Z,4.00
2023-01-29T13:20:04.252Z,4.00
2023-01-29T13:22:36.805Z,3.90
2023-01-29T13:25:05.661Z,3.90
2023-01-29T13:27:33.875Z,3.70
2023-01-29T13:30:01.189Z,3.60
2023-01-29T13:32:30.786Z,3.70
2023-01-29T13:34:59.181Z,3.60
2023-01-29T13:37:36.863Z,3.50
2023-01-29T13:40:05.339Z,3.60
2023-01-29T13:42:48.771Z,3.50
2023-01-29T13:45:34.954Z,3.50
2023-01-29T13:48:17.496Z,3.40
2023-01-29T13:50:45.535Z,3.30
2023-01-29T13:53:22.130Z,3.30
2023-01-29T13:55:48.733Z,3.30
2023-01-29T13:58:16.388Z,3.30
2023-01-29T14:00:44.019Z,3.30
2023-01-29T14:03:13.654Z,3.30
2023-01-29T14:05:44.643Z,3.30
2023-01-29T14:08:14.553Z,3.10
2023-01-29T14:10:42.311Z,3.00
2023-01-29T14:13:18.270Z,3.00
2023-01-29T14:15:57.377Z,2.90
2023-01-29T14:18:25.119Z,2.90
2023-01-29T14:20:53.978Z,2.90
2023-01-29T14:23:41.129Z,2.80
2023-01-29T14:26:23.114Z,2.80
2023-01-29T14:28:54.262Z,2.70
2023-01-29T14:31:28.573Z,2.70
2023-01-29T14:34:00.960Z,2.60
2023-01-29T14:36:28.041Z,2.60
2023-01-29T14:38:54.892Z,2.50
2023-01-29T14:41:27.346Z,2.50
2023-01-29T14:44:16.284Z,2.50
2023-01-29T14:46:44.024Z,2.40
2023-01-29T14:49:10.989Z,2.40
2023-01-29T14:51:42.974Z,2.40
2023-01-29T14:54:19.874Z,2.40
2023-01-29T14:56:52.454Z,2.40
2023-01-29T14:59:27.003Z,2.40
2023-01-29T15:01:55.341Z,2.30
2023-01-29T15:04:30.546Z,2.30
2023-01-29T15:07:05.816Z,2.20
2023-01-29T15:09:36.515Z,2.20
2023-01-29T15:12:16.088Z,2.20
2023-01-29T15:15:01.159Z,2.10
2023-01-29T15:17:32.581Z,2.10
2023-01-29T15:19:59.325Z,2.00
2023-01-29T15:22:26.197Z,1.90
2023-01-29T15:25:03.521Z,1.90
2023-01-29T15:27:30.845Z,1.80
2023-01-29T15:29:59.178Z,1.70
2023-01-29T15:32:39.642Z,1.70
2023-01-29T15:35:11.226Z,1.70
2023-01-29T15:37:37.960Z,1.60
2023-01-29T15:40:06.932Z,1.50
2023-01-29T15:42:46.729Z,1.40
2023-01-29T15:45:27.423Z,1.30
2023-01-29T15:47:55.471Z,1.20
2023-01-29T15:50:22.189Z,1.10
2023-01-29T15:52:50.540Z,0.90
2023-01-29T15:55:19.697Z,0.90
2023-01-29T15:57:46.933Z,0.80
2023-01-29T16:00:23.272Z,0.90
2023-01-29T16:02:50.150Z,0.90
2023-01-29T16:05:19.563Z,0.90
2023-01-29T16:07:46.810Z,0.90
2023-01-29T16:10:18.869Z,0.90
2023-01-29T16:12:51.205Z,0.80
2023-01-29T16:15:21.148Z,0.80
2023-01-29T16:17:47.871Z,0.90
2023-01-29T16:26:47.482Z,1.00
2023-01-29T16:29:28.015Z,1.10
2023-01-29T16:32:10.633Z,1.10
2023-01-29T16:37:36.379Z,1.10
2023-01-29T16:40:16.437Z,1.10
2023-01-29T16:42:43.146Z,1.10
2023-01-29T16:45:26.576Z,1.10
2023-01-29T16:48:19.399Z,1.10
2023-01-29T16:50:54.679Z,1.10
2023-01-29T16:53:23.391Z,1.10
2023-01-29T16:55:50.763Z,1.10
2023-01-29T16:58:18.991Z,1.20
2023-01-29T17:00:49.072Z,1.10
2023-01-29T17:03:20.116Z,1.20
2023-01-29T17:05:58.641Z,1.30
2023-01-29T17:08:28.955Z,1.30
2023-01-29T17:11:01.162Z,1.30
2023-01-29T17:13:33.990Z,1.20
2023-01-29T17:16:14.002Z,1.10
2023-01-29T17:18:40.814Z,1.10
2023-01-29T17:21:07.499Z,1.10
2023-01-29T17:23:35.448Z,1.10
2023-01-29T17:26:02.614Z,1.00
2023-01-29T17:28:30.496Z,1.00
2023-01-29T17:31:06.365Z,1.00
2023-01-29T17:33:34.111Z,1.00
2023-01-29T17:36:01.006Z,0.90
2023-01-29T17:38:27.637Z,0.90
2023-01-29T17:40:57.302Z,1.00
2023-01-29T17:43:23.895Z,0.90
2023-01-29T17:45:50.675Z,1.00
2023-01-29T17:48:25.257Z,1.00
2023-01-29T17:50:53.503Z,0.90
2023-01-29T17:53:23.612Z,0.90
2023-01-29T17:55:50.507Z,0.90
2023-01-29T17:58:21.727Z,1.00
2023-01-29T18:00:48.771Z,0.90
2023-01-29T18:03:15.574Z,0.90
2023-01-29T18:05:43.621Z,1.00
2023-01-29T18:08:18.154Z,1.00
2023-01-29T18:10:45.613Z,1.00
2023-01-29T18:13:12.672Z,1.00
2023-01-29T18:15:39.442Z,1.00
2023-01-29T18:18:10.272Z,1.00
2023-01-29T18:20:52.472Z,1.00
2023-01-29T18:23:19.261Z,0.90
2023-01-29T18:25:45.990Z,1.00
2023-01-29T18:28:17.111Z,1.00
2023-01-29T18:30:47.506Z,1.00
2023-01-29T18:33:15.842Z,1.00
2023-01-29T18:35:47.951Z,1.00
2023-01-29T18:38:14.705Z,1.00
2023-01-29T18:40:41.373Z,1.00
2023-01-29T18:43:10.861Z,1.00
2023-01-29T18:45:37.650Z,0.90
2023-01-29T18:48:09.501Z,0.90
2023-01-29T18:50:36.556Z,0.80
2023-01-29T18:53:04.412Z,0.90
2023-01-29T18:55:31.094Z,0.90
2023-01-29T18:58:28.502Z,1.00
2023-01-29T19:00:44.548Z,1.00
2023-01-29T19:03:11.297Z,1.00
2023-01-29T19:05:37.910Z,0.90
2023-01-29T19:08:06.400Z,0.90
2023-01-29T19:10:34.430Z,0.90
2023-01-29T19:42:20.099Z,0.90
2023-01-29T19:44:56.153Z,0.90
2023-01-29T19:47:34.655Z,1.00
2023-01-29T19:50:46.049Z,1.00
2023-01-29T19:56:20.024Z,1.00
2023-01-29T19:58:47.330Z,1.00
2023-01-29T20:19:56.346Z,0.80
2023-01-29T21:27:45.334Z,0.10
2023-01-29T21:30:19.266Z,0.10
2023-01-29T21:32:46.359Z,0.00
2023-01-29T21:35:13.269Z,-0.10
2023-01-29T21:37:40.007Z,-0.20
2023-01-29T21:40:07.282Z,-0.30
2023-01-29T21:42:52.582Z,-0.40
2023-01-29T21:45:19.602Z,-0.50
2023-01-29T21:47:46.525Z,-0.60
2023-01-29T21:50:14.065Z,-0.70
2023-01-29T21:52:40.810Z,-0.70
2023-01-29T21:55:26.135Z,-0.80
2023-01-29T21:57:52.784Z,-0.80
2023-01-29T22:00:19.604Z,-0.90
2023-01-29T22:02:46.595Z,-0.90
2023-01-29T22:05:19.247Z,-1.00
2023-01-29T22:07:47.175Z,-1.10
2023-01-29T22:10:14.428Z,-1.10
2023-01-29T22:12:48.421Z,-1.20
2023-01-29T22:15:39.020Z,-1.20
2023-01-29T22:18:09.818Z,-1.20
2023-01-29T22:20:36.699Z,-1.20
2023-01-29T22:23:03.497Z,-1.30
2023-01-29T22:25:31.591Z,-1.30
2023-01-29T22:28:13.645Z,-1.30
2023-01-29T22:30:40.265Z,-1.30
2023-01-29T22:33:07.065Z,-1.30
2023-01-29T22:35:33.836Z,-1.40
2023-01-29T22:38:00.483Z,-1.40
2023-01-29T22:40:29.842Z,-1.50
2023-01-29T22:42:57.354Z,-1.50
2023-01-29T22:45:25.109Z,-1.70
2023-01-29T22:47:57.925Z,-1.70
2023-01-29T22:50:24.575Z,-1.80
2023-01-29T22:52:53.721Z,-1.80
2023-01-29T22:55:20.805Z,-1.80
2023-01-29T22:57:51.053Z,-1.80
2023-01-29T23:00:18.273Z,-1.90
2023-01-29T23:02:48.190Z,-1.90
2023-01-29T23:05:14.836Z,-1.90
2023-01-29T23:07:48.587Z,-2.00
2023-01-29T23:10:15.562Z,-2.10
2023-01-29T23:12:42.325Z,-2.10
2023-01-29T23:15:09.124Z,-2.10
2023-01-29T23:17:39.697Z,-2.20
2023-01-29T23:20:06.681Z,-2.20
2023-01-29T23:22:33.309Z,-2.20
2023-01-29T23:25:02.781Z,-2.30
2023-01-29T23:27:29.466Z,-2.30
2023-01-29T23:29:56.136Z,-2.30
2023-01-29T23:32:22.875Z,-2.30
2023-01-29T23:34:49.553Z,-2.30
2023-01-29T23:37:16.221Z,-2.30
2023-01-29T23:39:42.874Z,-2.40
2023-01-29T23:42:13.529Z,-2.40
2023-01-29T23:44:40.698Z,-2.40
2023-01-29T23:47:07.781Z,-2.50
2023-01-29T23:49:34.751Z,-2.50
2023-01-29T23:52:01.719Z,-2.60
2023-01-29T23:54:28.355Z,-2.60
2023-01-29T23:56:55.045Z,-2.60
2023-01-29T23:59:21.770Z,-2.60
